• Join FlightAware (Why Join?)
  • Login
  • US Flag 
11:15PM EDT


 

Airport Tracker/Info


-or-


 

Live Flight TrackerFlight Track Log ✈ ASH3732 ✈ 01-Jul-2013 ✈ KMIA - KIAD

Flight Track Log - Related Links

Times and Time Zones

All times are in EDT time to prevent confusion due to time zone crossing. See the ASH3732 flight status page for this flight to view local times or setup timezone preferences in your user account.

Time Position Orientation Groundspeed Altitude Reporting Facility
EDT Latitude Longitude Course Direction KTS MPH feet Rate Location/Type
09:11AM 25.7983 -80.2631 74° East 167 192 1,000  Level Miami Center
09:12AM 25.8100 -80.2172 74° East 227 261 1,900 1,860 Climbing Miami Center
09:14AM 25.9233 -80.1925 11° North 295 339 6,100 1,740 Climbing Miami Center
09:15AM 25.9997 -80.2317 335° Northwest 295 339 7,000 1,200 Climbing Miami Center
09:16AM 26.0781 -80.2686 337° Northwest 300 345 8,600 1,800 Climbing Miami Center
09:17AM 26.1500 -80.3261 324° Northwest 305 351 10,600 1,680 Climbing Miami Center
09:18AM 26.2106 -80.4067 310° West 317 365 12,000 1,620 Climbing Miami Center
09:19AM 26.2867 -80.4575 329° Northwest 339 390 13,900 1,980 Climbing Miami Center
09:20AM 26.3919 -80.5072 337° Northwest 366 421 16,000 1,740 Climbing Miami Center
09:21AM 26.4806 -80.5517 336° Northwest 377 434 17,400 1,440 Climbing Miami Center
09:22AM 26.5900 -80.6039 337° Northwest 377 434 18,900 1,380 Climbing Miami Center
09:23AM 26.6786 -80.6461 337° Northwest 382 440 20,200 1,200 Climbing Miami Center
09:24AM 26.7839 -80.6939 338° Northwest 397 457 21,300 1,140 Climbing Miami Center
09:25AM 26.8936 -80.7369 341° North 408 470 22,500 1,200 Climbing Miami Center
09:26AM 27.0031 -80.7733 343° North 408 470 23,800 1,140 Climbing Miami Center
09:27AM 27.1128 -80.8144 342° North 403 464 24,800 960 Climbing Miami Center
09:28AM 27.2222 -80.8531 343° North 409 471 25,800 1,080 Climbing Miami Center
09:29AM 27.3483 -80.8972 343° North 414 476 27,000 1,020 Climbing Miami Center
09:30AM 27.4622 -80.9386 342° North 421 484 27,900 900 Climbing Miami Center
09:31AM 27.5736 -80.9800 342° North 421 484 28,800 900 Climbing Miami Center
09:32AM 27.6811 -81.0167 343° North 426 490 29,700 900 Climbing Miami Center
09:33AM 27.7925 -81.0606 341° North 426 490 30,600 600 Climbing Miami Center
09:34AM 27.9247 -81.1103 342° North 442 509 31,000 360 Climbing Miami Center
09:35AM 28.0464 -81.1547 342° North 455 524 31,400 480 Climbing Miami Center
09:36AM 28.1703 -81.1994 342° North 462 532 32,000 600 Climbing Miami Center
09:37AM 28.2817 -81.2414 342° North 462 532 32,600 540 Climbing Miami Center
09:38AM 28.4078 -81.2864 343° North 467 537 33,100 540 Climbing Miami Center
09:39AM 28.5314 -81.3292 343° North 467 537 33,700 600 Climbing Miami Center
09:40AM 28.6789 -81.3492 353° North 472 543 34,400 540 Climbing Miami Center
09:41AM 28.8400 -81.3661 355° North 498 573 35,000 240 Climbing Jacksonville Center
09:42AM 28.9778 -81.3783 356° North 484 557 35,000  Level Jacksonville Center
09:43AM 29.1136 -81.3928 355° North 484 557 35,000  Level Jacksonville Center
09:44AM 29.2558 -81.4050 356° North 509 586 35,000  Level Jacksonville Center
09:45AM 29.4000 -81.4169 356° North 515 593 35,000  Level Jacksonville Center
09:46AM 29.5233 -81.4319 354° North 510 587 35,000  Level Jacksonville Center
09:47AM 29.6653 -81.4442 356° North 510 587 35,000  Level Jacksonville Center
09:48AM 29.8097 -81.4589 355° North 510 587 35,000  Level Jacksonville Center
09:49AM 29.9517 -81.4733 355° North 510 587 35,000  Level Jacksonville Center
09:50AM 30.0878 -81.5097 347° North 510 587 35,000  Level Jacksonville Center
09:51AM 30.2200 -81.5681 339° North 503 579 35,000  Level Jacksonville Center
09:52AM 30.3642 -81.5781 357° North 503 579 35,000  Level Jacksonville Center
09:53AM 30.5100 -81.5472 10° North 503 579 35,000  Level Jacksonville Center
09:54AM 30.6517 -81.5186 10° North 515 593 35,000  Level Jacksonville Center
09:55AM 30.7953 -81.4900 10° North 520 598 35,000  Level Jacksonville Center
09:56AM 30.9392 -81.4586 11° North 520 598 35,000  Level Jacksonville Center
09:57AM 31.0850 -81.4297 10° North 526 605 35,000  Level Jacksonville Center
09:58AM 31.2286 -81.3911 13° North 526 605 35,000  Level Jacksonville Center
09:59AM 31.3717 -81.3036 28° Northeast 516 594 35,000  Level Jacksonville Center
10:00AM 31.4919 -81.2383 25° Northeast 522 601 35,000  Level Jacksonville Center
10:01AM 31.6411 -81.1550 25° Northeast 529 609 35,000  Level Jacksonville Center
10:02AM 31.7592 -81.0894 25° Northeast 523 602 35,000  Level Jacksonville Center
10:03AM 31.9103 -81.0033 26° Northeast 523 602 35,000  Level Jacksonville Center
10:04AM 32.0447 -80.9294 25° Northeast 528 608 35,000  Level Jacksonville Center
10:05AM 32.1689 -80.8606 25° Northeast 528 608 35,000  Level Jacksonville Center
10:06AM 32.3158 -80.7786 25° Northeast 528 608 35,000  Level Jacksonville Center
10:07AM 32.4358 -80.7092 26° Northeast 528 608 35,000  Level Jacksonville Center
10:08AM 32.5700 -80.6297 27° Northeast 523 602 35,000 -60 Level Jacksonville Center
10:09AM 32.7044 -80.5522 26° Northeast 523 602 34,900  Descending Jacksonville Center
10:10AM 32.8386 -80.4769 25° Northeast 523 602 35,000  Climbing Jacksonville Center
10:11AM 32.9811 -80.3964 25° Northeast 529 609 35,000  Level Jacksonville Center
10:12AM 33.1153 -80.3158 27° Northeast 534 615 35,000  Level Jacksonville Center
10:13AM 33.2556 -80.2397 24° Northeast 540 621 35,000  Level Jacksonville Center
10:14AM 33.3894 -80.1586 27° Northeast 545 627 35,000  Level Jacksonville Center
10:15AM 33.5378 -80.0742 25° Northeast 540 621 35,000  Level Jacksonville Center
10:16AM 33.6736 -79.9925 27° Northeast 540 621 35,000  Level Jacksonville Center
10:17AM 33.8094 -79.9131 26° Northeast 540 621 35,000  Level Jacksonville Center
10:18AM 33.9453 -79.8311 27° Northeast 540 621 35,000  Level Jacksonville Center
10:19AM 34.0831 -79.7508 26° Northeast 540 621 35,000  Level Jacksonville Center
10:21AM 34.3192 -79.6125 26° Northeast 521 600 35,000  Level Washington Center
10:22AM 34.4614 -79.5389 23° Northeast 526 605 35,000  Level Washington Center
10:23AM 34.6036 -79.4650 23° Northeast 537 618 35,000  Level Washington Center
10:24AM 34.7417 -79.3908 24° Northeast 537 618 35,000  Level Washington Center
10:25AM 34.8836 -79.3164 23° Northeast 547 629 35,000  Level Washington Center
10:26AM 35.0556 -79.2278 23° Northeast 547 629 35,000  Level Washington Center
10:27AM 35.1956 -79.1528 24° Northeast 547 629 35,000  Level Washington Center
10:28AM 35.3397 -79.0728 24° Northeast 557 641 35,000  Level Washington Center
10:29AM 35.4942 -78.9953 22° Northeast 557 641 35,000 -120 Level Washington Center
10:31AM 35.6110 -78.9293 25° Northeast  Level FlightAware Approximate
10:31AM 35.7528 -78.8553 25° Northeast 552 635 34,700  Level Washington Center
10:32AM 35.9222 -78.7622 24° Northeast 546 628 34,000 -360 Descending Washington Center
10:33AM 36.0642 -78.6806 25° Northeast 546 628 34,000 -1,800 Level Washington Center
10:34AM 36.2039 -78.6011 25° Northeast 546 628 30,400 -3,540 Descending Washington Center
10:35AM 36.3350 -78.5261 25° Northeast 534 615 27,100 -1,200 Descending Washington Center
10:37AM 36.5972 -78.3756 25° Northeast 514 592 27,000 -60 Descending Washington Center
10:38AM 36.7136 -78.3047 26° Northeast 514 592 27,000  Level Washington Center
10:39AM 36.8469 -78.2264 25° Northeast 514 592 27,000  Level Washington Center
10:40AM 36.9694 -78.1550 25° Northeast 514 592 27,000 -900 Level Washington Center
10:42AM 37.2439 -77.9972 25° Northeast 514 592 24,400 -1,440 Descending Washington Center
10:43AM 37.3728 -77.9203 25° Northeast 514 592 22,900 -1,260 Descending Washington Center
10:44AM 37.5014 -77.8458 25° Northeast 509 586 22,000 -1,080 Descending Washington Center
10:45AM 37.6153 -77.7783 25° Northeast 483 556 20,800 -1,860 Descending Washington Center
10:46AM 37.7272 -77.6922 31° Northeast 467 537 18,300 -2,520 Descending Washington Center
10:47AM 37.8208 -77.5844 42° Northeast 459 528 15,900 -2,400 Descending Washington Center
10:48AM 37.9103 -77.4764 44° Northeast 447 514 13,600 -2,100 Descending Washington Center
10:49AM 37.9889 -77.3756 45° Northeast 418 481 11,700 -1,740 Descending Washington Center
10:50AM 38.0889 -77.3806 358° North 346 398 10,100 -900 Descending Washington Center
10:51AM 38.1831 -77.3694 North 335 386 10,000 -360 Descending Washington Center
10:52AM 38.2750 -77.3611 North 335 386 9,500 -1,020 Descending Washington Center
10:53AM 38.3625 -77.3553 North 324 373 8,100 -1,320 Descending Washington Center
10:54AM 38.4481 -77.3600 358° North 310 357 6,900 -1,380 Descending Washington Center
10:55AM 38.5333 -77.3647 358° North 304 350 5,400 -1,500 Descending Washington Center
10:56AM 38.6125 -77.3664 359° North 299 344 4,000 -720 Descending Washington Center
10:57AM 38.6919 -77.3631 North 287 330 4,000  Level Washington Center
10:58AM 38.7733 -77.3597 North 287 330 4,000  Level Washington Center
10:59AM 38.8667 -77.3500 North 289 333 4,000 -360 Level Potomac TRACON
11:01AM 39.0333 -77.3500 360° North 273 314 3,000 -540 Descending Potomac TRACON
11:02AM 39.1000 -77.3500 360° North 266 306 2,500 -540 Descending Potomac TRACON
11:03AM 39.1333 -77.3833 322° Northwest 205 236 2,000 -300 Descending Potomac TRACON
11:04AM 39.1167 -77.4333 247° West 184 212 2,000 -120 Level Potomac TRACON
11:06AM 39.0167 -77.4333 180° South 138 159 1,700 -180 Descending Potomac TRACON
11:09AM 38.9474 -77.4599 191° South  Level Estimated
11:16AM 38.9474 -77.4599 191° South  Level Estimated
11:17AM 38.9474 -77.4599 191° South  Level Estimated
11:18AM 38.9474 -77.4599 191° South  Level Estimated
11:19AM 38.9474 -77.4599 191° South  Level Estimated